FDMS/MTS METAR and TAF weather

Enter ICAO airport designator
Station Type Date Time Source
FDMS METAR 2020/10/14 08:00 UTC NOAA

FDMS 140800Z VRB02KT 9999 SCT020 BKN030 18/13 Q1029 TEMPO 8000 -RA


Station Type Date Time Source
FDMS Decoded METAR 2020/10/14 08:00 UTC NOAA

Manzini / Matsapa Airport, Swaziland (FDMS) 26-32S 031-18E
Oct 14, 2020 - 04:00 AM EDT / 2020.10.14 0800 UTC
Wind: Variable at 2 MPH (2 KT):0
Visibility: greater than 7 mile(s):0
Sky conditions: mostly cloudy
Temperature: 64 F (18 C)
Dew Point: 55 F (13 C)
Relative Humidity: 72%
Pressure (altimeter): 30.39 in. Hg (1029 hPa)
ob: FDMS 140800Z VRB02KT 9999 SCT020 BKN030 18/13 Q1029 TEMPO 8000 -RA
cycle: 8

Station Type Date Time Source
FDMS TAF 2020/03/05 06:00 UTC NOAA

TAF TAF FDMS 050400Z 0506/0518 06007KT CAVOK

Example: see airport list